KIAH/IAH METAR and TAF weather

Enter ICAO airport designator
Station Type Date Time Source
KIAH METAR 2020/07/02 18:53 UTC NOAA

KIAH 021853Z VRB03KT 7SM SCT044 SCT055 SCT140 34/22 A2999 RMK AO2 SLP153 T03440222


Station Type Date Time Source
KIAH Decoded METAR 2020/07/02 18:53 UTC NOAA

HOUSTON INTERCONTINENTAL, TX, United States (KIAH) 30-00N 095-22W 36M
Jul 02, 2020 - 02:53 PM EDT / 2020.07.02 1853 UTC
Wind: Variable at 3 MPH (3 KT):0
Visibility: 7 mile(s):0
Sky conditions: partly cloudy
Temperature: 93.9 F (34.4 C)
Heat index: 102.0 F (38.9 C):1
Dew Point: 72.0 F (22.2 C)
Relative Humidity: 49%
Pressure (altimeter): 29.99 in. Hg (1015 hPa)
ob: KIAH 021853Z VRB03KT 7SM SCT044 SCT055 SCT140 34/22 A2999 RMK AO2 SLP153 T03440222
cycle: 19

Station Type Date Time Source
KIAH TAF 2020/07/02 18:30 UTC NOAA

TAF KIAH 021720Z 0218/0324 VRB06KT P6SM SCT040 SCT160
FM022100 16008KT P6SM FEW160
FM030200 19005KT P6SM FEW015 FEW025
FM030900 23002KT P6SM SCT015 BKN025
FM031500 24006KT P6SM SCT025 SCT160
FM031800 22006KT P6SM FEW160

Example: see airport list